createdAt,value
2016-11-01T00:00:11.964Z,0
2016-11-01T00:01:22.244Z,0
2016-11-01T00:02:32.224Z,0
2016-11-01T00:03:41.892Z,0
2016-11-01T00:04:51.889Z,0
2016-11-01T00:06:02.158Z,0
2016-11-01T00:07:12.467Z,0
2016-11-01T00:08:22.790Z,0
2016-11-01T00:09:33.091Z,0
2016-11-01T00:10:43.412Z,0
2016-11-01T00:11:53.400Z,0
2016-11-01T00:13:03.689Z,0
2016-11-01T00:14:13.988Z,0
2016-11-01T00:15:23.669Z,0
2016-11-01T00:16:33.637Z,0
2016-11-01T00:17:43.619Z,0
2016-11-01T00:18:52.665Z,0
2016-11-01T00:20:02.972Z,0
2016-11-01T00:21:12.987Z,0
2016-11-01T00:22:23.276Z,0
2016-11-01T00:23:33.571Z,0
2016-11-01T00:24:43.552Z,0
2016-11-01T00:25:53.851Z,0
2016-11-01T00:27:04.136Z,0
2016-11-01T00:28:14.420Z,0
2016-11-01T00:29:24.395Z,0
2016-11-01T00:30:34.381Z,0
2016-11-01T00:31:44.359Z,0
2016-11-01T00:32:54.644Z,0
2016-11-01T00:34:04.666Z,0
2016-11-01T00:35:14.958Z,0
2016-11-01T00:36:24.949Z,0
2016-11-01T00:37:34.939Z,0
2016-11-01T00:38:44.958Z,0
2016-11-01T00:39:54.955Z,0
2016-11-01T00:41:05.242Z,0
2016-11-01T00:42:15.527Z,0
2016-11-01T00:43:25.529Z,0
2016-11-01T00:44:35.502Z,0
2016-11-01T00:45:45.796Z,0
2016-11-01T00:46:55.512Z,0
2016-11-01T00:48:05.808Z,0
2016-11-01T00:49:16.089Z,0
2016-11-01T00:50:26.380Z,0
2016-11-01T00:51:36.051Z,0
2016-11-01T00:52:46.346Z,0
2016-11-01T00:53:56.320Z,0
2016-11-01T00:55:06.862Z,0
2016-11-01T00:56:16.844Z,0
2016-11-01T00:57:26.834Z,0
2016-11-01T00:58:37.119Z,0
2016-11-01T00:59:47.449Z,0
2016-11-01T01:00:57.730Z,0
2016-11-01T01:02:08.012Z,0
2016-11-01T01:03:17.995Z,0
2016-11-01T01:04:27.971Z,0
2016-11-01T01:05:37.938Z,0
2016-11-01T01:06:48.229Z,0
2016-11-01T01:07:58.517Z,0
2016-11-01T01:09:08.515Z,0
2016-11-01T01:10:18.490Z,0
2016-11-01T01:11:27.535Z,0
2016-11-01T01:12:37.198Z,0
2016-11-01T01:13:47.174Z,0
2016-11-01T01:14:56.857Z,0
2016-11-01T01:16:06.533Z,0
2016-11-01T01:17:16.829Z,0
2016-11-01T01:18:26.799Z,0
2016-11-01T01:19:37.094Z,0
2016-11-01T01:20:47.388Z,0
2016-11-01T01:21:57.352Z,0
2016-11-01T01:23:07.648Z,0
2016-11-01T01:24:17.954Z,0
2016-11-01T01:25:28.247Z,0
2016-11-01T01:26:38.533Z,0
2016-11-01T01:27:48.810Z,0
2016-11-01T01:28:58.793Z,0
2016-11-01T01:30:08.154Z,0
2016-11-01T01:31:18.455Z,0
2016-11-01T01:32:28.754Z,0
2016-11-01T01:33:39.026Z,0
2016-11-01T01:34:48.695Z,0
2016-11-01T01:35:58.969Z,0
2016-11-01T01:37:09.257Z,0
2016-11-01T01:38:19.276Z,0
2016-11-01T01:39:29.568Z,0
2016-11-01T01:40:39.238Z,0
2016-11-01T01:41:49.520Z,0
2016-11-01T01:42:59.492Z,0
2016-11-01T01:44:09.474Z,0
2016-11-01T01:45:19.765Z,0
2016-11-01T01:46:29.432Z,0
2016-11-01T01:47:39.750Z,0
2016-11-01T01:48:49.716Z,0
2016-11-01T01:49:59.384Z,0
2016-11-01T01:51:09.676Z,0
2016-11-01T01:52:19.966Z,0
2016-11-01T01:53:29.978Z,0
2016-11-01T01:54:40.284Z,0
2016-11-01T01:55:50.275Z,0
2016-11-01T01:57:00.577Z,0
2016-11-01T01:58:10.569Z,0
2016-11-01T01:59:20.863Z,0
2016-11-01T02:00:31.148Z,0
2016-11-01T02:01:41.434Z,0
2016-11-01T02:02:51.417Z,0
2016-11-01T02:04:01.719Z,0
2016-11-01T02:05:12.009Z,0
2016-11-01T02:06:21.985Z,0
2016-11-01T02:07:31.969Z,0
2016-11-01T02:08:41.949Z,0
2016-11-01T02:09:52.236Z,0
2016-11-01T02:11:02.558Z,0
2016-11-01T02:12:12.560Z,0
2016-11-01T02:13:22.843Z,0
2016-11-01T02:14:32.833Z,0
2016-11-01T02:15:43.134Z,0
2016-11-01T02:16:53.117Z,0
2016-11-01T02:18:02.788Z,0
2016-11-01T02:19:12.755Z,0
2016-11-01T02:20:23.036Z,0
2016-11-01T02:21:33.313Z,0
2016-11-01T02:22:43.645Z,0
2016-11-01T02:23:53.330Z,0
2016-11-01T02:25:03.657Z,0
2016-11-01T02:26:13.679Z,0
2016-11-01T02:27:23.959Z,0
2016-11-01T02:28:34.259Z,0
2016-11-01T02:29:44.225Z,0
2016-11-01T02:30:54.199Z,0
2016-11-01T02:32:04.507Z,0
2016-11-01T02:33:14.802Z,0
2016-11-01T02:34:24.499Z,0
2016-11-01T02:35:34.793Z,0
2016-11-01T02:36:44.461Z,0
2016-11-01T02:37:54.432Z,0
2016-11-01T02:39:04.732Z,0
2016-11-01T02:40:14.701Z,0
2016-11-01T02:41:24.668Z,0
2016-11-01T02:42:34.653Z,0
2016-11-01T02:43:44.974Z,0
2016-11-01T02:44:54.957Z,0
2016-11-01T02:46:04.938Z,0
2016-11-01T02:47:15.239Z,0
2016-11-01T02:48:25.543Z,0
2016-11-01T02:49:35.838Z,0
2016-11-01T02:50:45.821Z,0
2016-11-01T02:51:56.092Z,0
2016-11-01T02:53:06.072Z,0
2016-11-01T02:54:16.356Z,0
2016-11-01T02:55:26.338Z,0
2016-11-01T02:56:36.319Z,0
2016-11-01T02:57:46.292Z,0
2016-11-01T02:58:56.572Z,0
2016-11-01T03:00:06.269Z,0
2016-11-01T03:32:16.318Z,0
2016-11-01T03:33:25.982Z,0
2016-11-01T03:34:36.288Z,0
2016-11-01T03:35:46.564Z,0
2016-11-01T03:36:56.882Z,0
2016-11-01T03:38:06.860Z,0
2016-11-01T03:39:17.151Z,0
2016-11-01T03:40:26.828Z,0
2016-11-01T03:41:37.158Z,0
2016-11-01T03:42:47.494Z,0
2016-11-01T03:43:57.768Z,0
2016-11-01T03:45:08.305Z,0
2016-11-01T03:46:18.606Z,0
2016-11-01T03:47:28.581Z,0
2016-11-01T03:48:38.873Z,0
2016-11-01T03:49:49.160Z,0
2016-11-01T03:50:59.151Z,0
2016-11-01T03:52:09.435Z,0
2016-11-01T03:53:19.711Z,0
2016-11-01T03:54:30.003Z,0
2016-11-01T03:55:40.284Z,0
2016-11-01T03:56:50.300Z,0
2016-11-01T03:58:00.601Z,0
2016-11-01T03:59:10.610Z,0
2016-11-01T04:00:20.888Z,0
2016-11-01T04:01:31.167Z,0
2016-11-01T04:02:41.179Z,0
2016-11-01T04:03:51.475Z,0
2016-11-01T04:05:01.752Z,0
2016-11-01T04:06:12.043Z,0
2016-11-01T04:07:22.032Z,0
2016-11-01T04:08:31.733Z,0
2016-11-01T04:09:41.404Z,0
2016-11-01T04:10:51.690Z,0
2016-11-01T04:12:01.673Z,0
2016-11-01T04:13:11.994Z,0
2016-11-01T04:14:22.286Z,0
2016-11-01T04:15:32.572Z,0
2016-11-01T04:16:42.544Z,0
2016-11-01T04:17:52.829Z,0
2016-11-01T04:19:03.119Z,0
2016-11-01T04:20:13.440Z,0
2016-11-01T04:21:23.735Z,0
2016-11-01T04:22:33.402Z,0
2016-11-01T04:23:43.390Z,0
2016-11-01T04:24:53.685Z,0
2016-11-01T04:26:03.978Z,0
2016-11-01T04:27:14.264Z,0
2016-11-01T04:28:24.545Z,0
2016-11-01T04:29:34.518Z,0
2016-11-01T04:30:44.815Z,0
2016-11-01T04:31:55.091Z,0
2016-11-01T04:33:05.382Z,0
2016-11-01T04:34:15.399Z,0
2016-11-01T04:35:25.730Z,0
2016-11-01T04:36:36.019Z,0
2016-11-01T04:37:46.309Z,0
2016-11-01T04:38:56.601Z,0
2016-11-01T04:40:06.639Z,0
2016-11-01T04:41:16.936Z,0
2016-11-01T04:42:26.926Z,0
2016-11-01T04:43:37.214Z,0
2016-11-01T04:44:47.529Z,0
2016-11-01T04:45:57.546Z,0
2016-11-01T04:47:07.203Z,0
2016-11-01T04:48:17.520Z,0
2016-11-01T04:49:27.815Z,0
2016-11-01T04:50:38.101Z,0
2016-11-01T04:51:48.426Z,0
2016-11-01T04:52:58.711Z,0
2016-11-01T04:54:08.998Z,0
2016-11-01T04:55:19.285Z,0
2016-11-01T04:56:29.281Z,0
2016-11-01T04:57:39.578Z,0
2016-11-01T04:58:49.232Z,0
2016-11-01T04:59:59.521Z,0
2016-11-01T05:01:09.539Z,0
2016-11-01T05:02:19.552Z,0
2016-11-01T05:03:29.851Z,0
2016-11-01T05:04:40.148Z,0
2016-11-01T05:05:50.440Z,0
2016-11-01T05:07:00.737Z,0
2016-11-01T05:08:11.024Z,0
2016-11-01T05:09:21.315Z,0
2016-11-01T05:10:31.292Z,0
2016-11-01T05:11:41.349Z,0
2016-11-01T05:12:51.644Z,0
2016-11-01T05:14:01.311Z,0
2016-11-01T05:15:11.285Z,0
2016-11-01T05:16:21.261Z,0
2016-11-01T05:17:31.546Z,0
2016-11-01T05:18:41.823Z,0
2016-11-01T05:19:51.484Z,0
2016-11-01T05:21:01.787Z,0
2016-11-01T05:22:11.788Z,0
2016-11-01T05:23:22.054Z,0
2016-11-01T05:24:32.345Z,0
2016-11-01T05:25:42.317Z,0
2016-11-01T05:26:52.613Z,0
2016-11-01T05:28:02.889Z,0
2016-11-01T05:29:13.166Z,0
2016-11-01T05:30:23.447Z,0
2016-11-01T05:31:33.734Z,0
2016-11-01T05:32:44.006Z,0
2016-11-01T05:33:54.016Z,0
2016-11-01T05:35:04.324Z,0
2016-11-01T05:36:14.004Z,0
2016-11-01T05:37:23.971Z,0
2016-11-01T05:38:34.314Z,0
2016-11-01T05:39:43.998Z,0
2016-11-01T05:40:54.292Z,0
2016-11-01T05:42:03.947Z,0
2016-11-01T05:43:14.223Z,0
2016-11-01T05:44:23.897Z,0
2016-11-01T05:45:33.877Z,0
2016-11-01T05:46:43.539Z,0
2016-11-01T05:47:53.823Z,0
2016-11-01T05:49:03.792Z,0
2016-11-01T05:50:14.073Z,0
2016-11-01T05:51:24.044Z,0
2016-11-01T05:52:34.035Z,5
2016-11-01T05:53:44.317Z,5
2016-11-01T05:54:54.303Z,5
2016-11-01T05:56:04.279Z,5
2016-11-01T05:57:14.563Z,5
2016-11-01T05:58:24.223Z,5
2016-11-01T05:59:34.195Z,5
2016-11-01T06:00:44.213Z,5
2016-11-01T06:01:54.517Z,5
2016-11-01T06:03:04.804Z,5
2016-11-01T06:04:14.793Z,5
2016-11-01T06:05:25.087Z,5
2016-11-01T06:06:35.088Z,10
2016-11-01T06:07:45.385Z,10
2016-11-01T06:08:55.391Z,10
2016-11-01T06:10:04.753Z,5
2016-11-01T06:11:15.028Z,5
2016-11-01T06:12:24.705Z,10
2016-11-01T06:13:34.982Z,10
2016-11-01T06:14:45.004Z,10
2016-11-01T06:15:55.299Z,10
2016-11-01T06:17:05.288Z,10
2016-11-01T06:18:15.566Z,10
2016-11-01T06:19:25.552Z,10
2016-11-01T06:20:35.831Z,10
2016-11-01T06:21:46.101Z,10
2016-11-01T06:22:55.763Z,10
2016-11-01T06:24:06.048Z,10
2016-11-01T06:25:16.341Z,10
2016-11-01T06:26:26.631Z,10
2016-11-01T06:27:36.928Z,15
2016-11-01T06:28:47.220Z,15
2016-11-01T06:29:57.500Z,15
2016-11-01T06:31:07.462Z,20
2016-11-01T06:32:17.735Z,20
2016-11-01T06:33:28.027Z,20
2016-11-01T06:34:38.305Z,20
2016-11-01T06:35:48.587Z,25
2016-11-01T06:36:58.883Z,25
2016-11-01T06:38:09.184Z,25
2016-11-01T06:39:19.462Z,30
2016-11-01T06:40:29.178Z,30
2016-11-01T06:41:39.466Z,30
2016-11-01T06:42:49.450Z,30
2016-11-01T06:43:59.734Z,35
2016-11-01T06:45:09.754Z,35
2016-11-01T06:46:20.045Z,35
2016-11-01T06:47:30.020Z,35
2016-11-01T06:48:40.312Z,35
2016-11-01T06:49:50.028Z,35
2016-11-01T06:51:00.307Z,35
2016-11-01T06:52:10.278Z,35
2016-11-01T06:53:20.253Z,35
2016-11-01T06:54:30.231Z,40
2016-11-01T06:55:40.527Z,40
2016-11-01T06:56:50.812Z,40
2016-11-01T06:58:00.784Z,40
2016-11-01T06:59:10.466Z,40
2016-11-01T07:00:20.491Z,40
2016-11-01T07:01:30.499Z,40
2016-11-01T07:02:40.784Z,40
2016-11-01T07:03:50.782Z,40
2016-11-01T07:05:00.767Z,45
2016-11-01T07:06:10.440Z,45
2016-11-01T07:07:20.430Z,45
2016-11-01T07:08:30.396Z,50
2016-11-01T07:09:40.737Z,55
2016-11-01T07:10:51.007Z,55
2016-11-01T07:12:01.314Z,60
2016-11-01T07:13:11.326Z,60
2016-11-01T07:14:21.602Z,65
2016-11-01T07:15:31.573Z,65
2016-11-01T07:16:41.551Z,70
2016-11-01T07:17:51.526Z,70
2016-11-01T07:19:01.812Z,70
2016-11-01T07:20:11.795Z,70
2016-11-01T07:21:22.096Z,75
2016-11-01T07:22:32.384Z,75
2016-11-01T07:23:42.689Z,80
2016-11-01T07:24:52.967Z,75
2016-11-01T07:26:03.264Z,80
2016-11-01T07:27:13.565Z,80
2016-11-01T07:28:23.847Z,85
2016-11-01T07:29:34.151Z,80
2016-11-01T07:30:43.811Z,80
2016-11-01T07:31:54.103Z,80
2016-11-01T07:33:03.459Z,80
2016-11-01T07:34:13.758Z,80
2016-11-01T07:35:24.047Z,80
2016-11-01T07:36:34.359Z,85
2016-11-01T07:37:44.646Z,85
2016-11-01T07:38:54.618Z,85
2016-11-01T07:40:04.600Z,85
2016-11-01T07:41:14.591Z,90
2016-11-01T07:42:24.914Z,90
2016-11-01T07:43:34.906Z,90
2016-11-01T07:44:45.210Z,90
2016-11-01T07:45:55.195Z,90
2016-11-01T07:47:05.192Z,90
2016-11-01T07:48:15.177Z,90
2016-11-01T07:49:25.460Z,90
2016-11-01T07:50:35.453Z,85
2016-11-01T07:51:45.155Z,85
2016-11-01T07:52:55.126Z,85
2016-11-01T07:54:05.114Z,85
2016-11-01T07:55:14.790Z,85
2016-11-01T07:56:25.079Z,85
2016-11-01T07:57:34.753Z,85
2016-11-01T07:58:45.044Z,85
2016-11-01T07:59:55.056Z,85
2016-11-01T08:01:05.335Z,85
2016-11-01T08:02:15.643Z,85
2016-11-01T08:03:25.955Z,85
2016-11-01T08:04:36.262Z,85
2016-11-01T08:05:45.934Z,85
2016-11-01T08:06:55.921Z,85
2016-11-01T08:08:05.907Z,85
2016-11-01T08:09:15.266Z,85
2016-11-01T08:10:25.256Z,85
2016-11-01T08:11:34.955Z,85
2016-11-01T08:12:44.941Z,90
2016-11-01T08:13:54.927Z,95
2016-11-01T08:15:05.217Z,95
2016-11-01T08:16:15.225Z,95
2016-11-01T08:17:25.200Z,105
2016-11-01T08:18:35.180Z,110
2016-11-01T08:19:45.474Z,120
2016-11-01T08:20:55.794Z,125
2016-11-01T08:22:06.081Z,130
2016-11-01T08:23:16.073Z,130
2016-11-01T08:24:26.056Z,135
2016-11-01T08:25:36.043Z,145
2016-11-01T08:26:45.709Z,145
2016-11-01T08:27:56.002Z,150
2016-11-01T08:29:06.288Z,155
2016-11-01T08:30:16.275Z,160
2016-11-01T08:31:26.266Z,165
2016-11-01T08:32:36.255Z,160
2016-11-01T08:33:46.222Z,160
2016-11-01T08:34:56.212Z,165
2016-11-01T08:36:06.507Z,165
2016-11-01T08:37:16.202Z,165
2016-11-01T08:38:25.883Z,170
2016-11-01T08:39:35.555Z,170
2016-11-01T08:40:45.542Z,170
2016-11-01T08:41:54.899Z,175
2016-11-01T08:43:05.197Z,170
2016-11-01T08:44:15.490Z,170
2016-11-01T08:45:25.781Z,175
2016-11-01T08:46:36.069Z,175
2016-11-01T08:47:46.369Z,190
2016-11-01T08:48:56.362Z,180
2016-11-01T08:50:06.655Z,175
2016-11-01T08:51:16.689Z,170
2016-11-01T08:52:26.385Z,175
2016-11-01T08:53:36.109Z,180
2016-11-01T08:54:46.391Z,170
2016-11-01T08:55:56.424Z,170
2016-11-01T08:57:06.718Z,175
2016-11-01T08:58:16.962Z,165
2016-11-01T08:59:27.262Z,155
2016-11-01T09:00:36.937Z,160
2016-11-01T09:01:46.923Z,175
2016-11-01T09:02:57.237Z,160
2016-11-01T09:04:07.219Z,160
2016-11-01T09:05:17.209Z,145
2016-11-01T09:06:27.195Z,145
2016-11-01T09:07:37.479Z,140
2016-11-01T09:08:47.824Z,210
2016-11-01T09:09:57.806Z,155
2016-11-01T09:11:07.494Z,220
2016-11-01T09:12:17.520Z,205
2016-11-01T09:13:27.806Z,215
2016-11-01T09:14:38.098Z,210
2016-11-01T09:15:48.074Z,220
2016-11-01T09:16:58.097Z,220
2016-11-01T09:18:08.403Z,220
2016-11-01T09:19:18.735Z,215
2016-11-01T09:20:28.402Z,215
2016-11-01T09:21:38.075Z,215
2016-11-01T09:22:48.396Z,215
2016-11-01T09:23:58.390Z,215
2016-11-01T09:25:08.062Z,220
2016-11-01T09:26:17.741Z,215
2016-11-01T09:27:27.419Z,210
2016-11-01T09:28:37.103Z,210
2016-11-01T09:29:47.400Z,210
2016-11-01T09:30:57.702Z,220
2016-11-01T09:32:07.998Z,220
2016-11-01T09:33:18.309Z,225
2016-11-01T09:34:28.642Z,225
2016-11-01T09:35:38.930Z,225
2016-11-01T09:36:48.951Z,225
2016-11-01T09:37:59.236Z,225
2016-11-01T09:39:09.523Z,225
2016-11-01T09:40:19.281Z,225
2016-11-01T09:41:29.288Z,225
2016-11-01T09:42:39.281Z,230
2016-11-01T09:43:49.589Z,225
2016-11-01T09:44:59.613Z,230
2016-11-01T09:46:09.912Z,230
2016-11-01T09:47:19.886Z,225
2016-11-01T09:48:30.214Z,205
2016-11-01T09:49:39.910Z,230
2016-11-01T09:50:49.896Z,230
2016-11-01T09:52:00.199Z,225
2016-11-01T09:53:09.878Z,230
2016-11-01T09:54:20.201Z,230
2016-11-01T09:55:30.193Z,225
2016-11-01T09:56:40.181Z,220
2016-11-01T09:57:50.166Z,220
2016-11-01T09:59:00.171Z,215
2016-11-01T10:00:10.189Z,220
2016-11-01T10:01:19.900Z,225
2016-11-01T10:02:30.217Z,225
2016-11-01T10:03:40.228Z,225
2016-11-01T10:04:50.231Z,225
2016-11-01T10:06:00.532Z,225
2016-11-01T10:07:10.824Z,220
2016-11-01T10:08:20.867Z,210
2016-11-01T10:09:31.172Z,210
2016-11-01T10:10:41.503Z,220
2016-11-01T10:11:51.510Z,225
2016-11-01T10:13:01.522Z,220
2016-11-01T10:14:11.886Z,220
2016-11-01T10:15:21.866Z,200
2016-11-01T10:16:32.176Z,210
2016-11-01T10:17:42.172Z,205
2016-11-01T10:18:52.169Z,205
2016-11-01T10:20:02.471Z,220
2016-11-01T10:21:12.518Z,225
2016-11-01T10:22:22.859Z,210
2016-11-01T10:23:32.855Z,210
2016-11-01T10:24:42.872Z,210
2016-11-01T10:25:52.891Z,210
2016-11-01T10:27:02.880Z,210
2016-11-01T10:28:12.853Z,220
2016-11-01T10:29:22.843Z,220
2016-11-01T10:30:33.149Z,220
2016-11-01T10:31:42.820Z,225
2016-11-01T10:32:52.542Z,220
2016-11-01T10:34:02.634Z,225
2016-11-01T10:35:12.630Z,220
2016-11-01T10:36:22.972Z,215
2016-11-01T10:37:32.989Z,215
2016-11-01T10:38:43.286Z,215
2016-11-01T10:39:53.583Z,230
2016-11-01T10:41:03.567Z,230
2016-11-01T10:42:13.893Z,230
2016-11-01T10:43:23.572Z,230
2016-11-01T10:44:33.888Z,240
2016-11-01T10:45:43.863Z,235
2016-11-01T10:46:54.179Z,235
2016-11-01T10:48:04.475Z,230
2016-11-01T10:49:14.153Z,230
2016-11-01T10:50:24.489Z,230
2016-11-01T10:51:34.779Z,230
2016-11-01T10:52:44.769Z,235
2016-11-01T10:53:55.118Z,240
2016-11-01T10:55:05.122Z,240
2016-11-01T10:56:14.812Z,245
2016-11-01T10:57:25.124Z,245
2016-11-01T10:58:34.500Z,240
2016-11-01T10:59:44.185Z,240
2016-11-01T11:00:54.481Z,240
2016-11-01T11:02:04.486Z,240
2016-11-01T11:03:13.857Z,240
2016-11-01T11:04:24.172Z,250
2016-11-01T11:05:34.493Z,245
2016-11-01T11:06:44.485Z,240
2016-11-01T11:07:54.804Z,250
2016-11-01T11:09:04.859Z,250
2016-11-01T11:10:15.151Z,255
2016-11-01T11:11:25.440Z,255
2016-11-01T11:12:35.771Z,260
2016-11-01T11:13:46.060Z,260
2016-11-01T11:14:56.385Z,240
2016-11-01T11:16:06.382Z,240
2016-11-01T11:17:16.696Z,235
2016-11-01T11:18:26.711Z,235
2016-11-01T11:19:37.034Z,240
2016-11-01T11:20:47.031Z,255
2016-11-01T11:21:57.026Z,250
2016-11-01T11:23:07.008Z,240
2016-11-01T11:24:16.999Z,240
2016-11-01T11:25:26.994Z,245
2016-11-01T11:26:36.973Z,240
2016-11-01T11:27:46.678Z,245
2016-11-01T11:28:56.671Z,250
2016-11-01T11:30:06.404Z,270
2016-11-01T11:31:16.698Z,265
2016-11-01T11:32:26.991Z,265
2016-11-01T11:33:36.673Z,265
2016-11-01T11:34:46.966Z,250
2016-11-01T11:35:56.957Z,255
2016-11-01T11:37:07.259Z,235
2016-11-01T11:38:17.261Z,230
2016-11-01T11:39:27.243Z,240
2016-11-01T11:40:37.242Z,255
2016-11-01T11:41:47.565Z,260
2016-11-01T11:42:57.571Z,255
2016-11-01T11:44:07.873Z,245
2016-11-01T11:45:18.182Z,230
2016-11-01T11:46:28.176Z,215
2016-11-01T11:47:38.174Z,215
2016-11-01T11:48:48.474Z,210
2016-11-01T11:49:58.161Z,210
2016-11-01T11:51:07.847Z,205
2016-11-01T11:52:17.853Z,210
2016-11-01T11:53:27.851Z,205
2016-11-01T11:54:37.529Z,205
2016-11-01T11:55:47.814Z,210
2016-11-01T11:56:58.096Z,215
2016-11-01T11:58:08.107Z,215
2016-11-01T11:59:18.410Z,215
2016-11-01T12:00:28.706Z,205
2016-11-01T12:01:39.001Z,205
2016-11-01T12:02:48.695Z,215
2016-11-01T12:03:58.693Z,220
2016-11-01T12:05:08.987Z,220
2016-11-01T12:06:19.282Z,235
2016-11-01T12:07:28.965Z,220
2016-11-01T12:08:38.946Z,205
2016-11-01T12:09:48.942Z,200
2016-11-01T12:10:59.239Z,210
2016-11-01T12:12:09.231Z,195
2016-11-01T12:13:19.542Z,215
2016-11-01T12:14:29.839Z,210
2016-11-01T12:15:39.835Z,210
2016-11-01T12:16:50.119Z,215
2016-11-01T12:18:00.432Z,210
2016-11-01T12:19:10.735Z,200
2016-11-01T12:20:21.037Z,210
2016-11-01T12:21:31.054Z,190
2016-11-01T12:22:41.375Z,180
2016-11-01T12:23:51.665Z,160
2016-11-01T12:25:01.953Z,165
2016-11-01T12:26:12.263Z,165
2016-11-01T12:27:22.603Z,160
2016-11-01T12:28:32.890Z,170
2016-11-01T12:29:42.878Z,185
2016-11-01T12:30:52.571Z,185
2016-11-01T12:32:02.561Z,185
2016-11-01T12:33:12.550Z,190
2016-11-01T12:34:22.840Z,185
2016-11-01T12:35:33.148Z,180
2016-11-01T12:36:42.827Z,185
2016-11-01T12:37:52.830Z,190
2016-11-01T12:39:03.136Z,170
2016-11-01T12:40:13.434Z,160
2016-11-01T12:41:23.739Z,190
2016-11-01T12:42:33.723Z,215
2016-11-01T12:43:43.733Z,215
2016-11-01T12:44:54.084Z,210
2016-11-01T12:46:04.085Z,200
2016-11-01T12:47:14.086Z,200
2016-11-01T12:48:24.072Z,210
2016-11-01T12:49:33.758Z,200
2016-11-01T12:50:44.059Z,200
2016-11-01T12:51:54.347Z,200
2016-11-01T12:53:04.663Z,200
2016-11-01T12:54:14.676Z,185
2016-11-01T12:55:24.678Z,170
2016-11-01T12:56:34.661Z,175
2016-11-01T12:57:47.751Z,185
2016-11-01T12:59:02.076Z,205
2016-11-01T13:00:16.110Z,195
2016-11-01T13:01:30.774Z,180
2016-11-01T13:02:41.775Z,190
2016-11-01T13:03:54.395Z,180
2016-11-01T13:05:08.373Z,165
2016-11-01T13:06:23.270Z,160
2016-11-01T13:07:34.249Z,155
2016-11-01T13:08:44.240Z,155
2016-11-01T13:09:54.551Z,150
2016-11-01T13:11:04.227Z,150
2016-11-01T13:12:14.548Z,160
2016-11-01T13:13:24.548Z,160
2016-11-01T13:14:34.247Z,175
2016-11-01T13:15:44.239Z,180
2016-11-01T13:16:53.948Z,185
2016-11-01T13:18:04.281Z,190
2016-11-01T13:19:14.615Z,195
2016-11-01T13:20:24.917Z,190
2016-11-01T13:21:35.206Z,185
2016-11-01T13:22:44.911Z,175
2016-11-01T13:23:55.221Z,170
2016-11-01T13:25:05.523Z,175
2016-11-01T13:26:15.256Z,180
2016-11-01T13:27:25.243Z,170
2016-11-01T13:28:35.546Z,185
2016-11-01T13:29:45.864Z,160
2016-11-01T13:30:56.164Z,155
2016-11-01T13:32:06.175Z,170
2016-11-01T13:33:16.160Z,180
2016-11-01T13:34:26.460Z,185
2016-11-01T13:35:36.146Z,185
2016-11-01T13:36:46.460Z,185
2016-11-01T13:37:56.755Z,180
2016-11-01T13:39:06.747Z,180
2016-11-01T13:40:17.039Z,165
2016-11-01T13:41:27.344Z,170
2016-11-01T13:42:37.334Z,165
2016-11-01T13:43:47.629Z,160
2016-11-01T13:44:57.296Z,160
2016-11-01T13:46:07.627Z,155
2016-11-01T13:47:17.918Z,145
2016-11-01T13:48:27.606Z,140
2016-11-01T13:49:36.982Z,140
2016-11-01T13:50:47.296Z,145
2016-11-01T13:51:57.285Z,145
2016-11-01T13:53:07.269Z,145
2016-11-01T13:54:17.583Z,145
2016-11-01T13:55:27.882Z,140
2016-11-01T13:56:37.884Z,135
2016-11-01T13:57:48.192Z,135
2016-11-01T13:58:57.866Z,135
2016-11-01T14:00:07.561Z,135
2016-11-01T14:01:17.592Z,135
2016-11-01T14:02:27.598Z,135
2016-11-01T14:03:37.899Z,135
2016-11-01T14:04:47.644Z,130
2016-11-01T14:05:57.017Z,130
2016-11-01T14:07:07.013Z,125
2016-11-01T14:08:17.016Z,120
2016-11-01T14:09:26.693Z,120
2016-11-01T14:10:36.988Z,115
2016-11-01T14:11:47.291Z,110
2016-11-01T14:12:57.282Z,110
2016-11-01T14:14:06.953Z,90
2016-11-01T14:15:17.246Z,95
2016-11-01T14:16:27.551Z,100
2016-11-01T14:17:37.857Z,105
2016-11-01T14:18:47.550Z,100
2016-11-01T14:19:57.549Z,105
2016-11-01T14:21:07.842Z,105
2016-11-01T14:22:18.119Z,95
2016-11-01T14:23:28.115Z,90
2016-11-01T14:24:38.411Z,90
2016-11-01T14:25:48.713Z,90
2016-11-01T14:26:58.714Z,90
2016-11-01T14:28:08.397Z,85
2016-11-01T14:29:18.073Z,80
2016-11-01T14:30:28.070Z,75
2016-11-01T14:31:37.765Z,75
2016-11-01T14:32:47.756Z,75
2016-11-01T14:33:57.771Z,75
2016-11-01T14:35:07.789Z,75
2016-11-01T14:36:18.091Z,75
2016-11-01T14:37:28.084Z,70
2016-11-01T14:38:38.064Z,70
2016-11-01T14:39:47.749Z,70
2016-11-01T14:40:57.753Z,65
2016-11-01T14:42:07.425Z,65
2016-11-01T14:43:17.410Z,65
2016-11-01T14:44:27.703Z,60
2016-11-01T14:45:37.699Z,60
2016-11-01T14:46:47.710Z,55
2016-11-01T14:47:57.711Z,55
2016-11-01T14:49:07.699Z,55
2016-11-01T14:50:17.985Z,50
2016-11-01T14:51:27.666Z,50
2016-11-01T14:52:37.996Z,50
2016-11-01T14:53:47.996Z,50
2016-11-01T14:54:58.007Z,50
2016-11-01T14:56:10.450Z,45
2016-11-01T14:57:24.031Z,45
2016-11-01T14:58:33.644Z,40
2016-11-01T14:59:43.946Z,40
2016-11-01T15:00:53.936Z,40
2016-11-01T15:02:04.265Z,35
2016-11-01T15:03:14.272Z,35
2016-11-01T15:04:24.575Z,35
2016-11-01T15:05:34.929Z,30
2016-11-01T15:06:44.950Z,30
2016-11-01T15:07:54.958Z,30
2016-11-01T15:09:04.958Z,25
2016-11-01T15:10:14.657Z,25
2016-11-01T15:11:24.956Z,25
2016-11-01T15:12:35.001Z,25
2016-11-01T15:13:45.280Z,20
2016-11-01T15:14:55.274Z,20
2016-11-01T15:16:05.269Z,20
2016-11-01T15:17:15.566Z,20
2016-11-01T15:18:25.861Z,15
2016-11-01T15:19:35.544Z,15
2016-11-01T15:20:45.565Z,15
2016-11-01T15:21:55.872Z,15
2016-11-01T15:23:05.859Z,10
2016-11-01T15:24:15.842Z,10
2016-11-01T15:25:25.845Z,10
2016-11-01T15:26:35.851Z,10
2016-11-01T15:27:46.137Z,10
2016-11-01T15:28:55.808Z,5
2016-11-01T15:30:05.796Z,5
2016-11-01T15:31:15.781Z,5
2016-11-01T15:32:25.460Z,5
2016-11-01T15:33:35.763Z,5
2016-11-01T15:34:45.447Z,5
2016-11-01T15:35:55.445Z,0
2016-11-01T15:37:05.745Z,0
2016-11-01T15:38:16.064Z,0
2016-11-01T15:39:26.090Z,0
2016-11-01T15:40:36.105Z,0
2016-11-01T15:41:46.087Z,0
2016-11-01T15:42:56.418Z,0
2016-11-01T15:44:06.705Z,0
2016-11-01T15:45:17.028Z,0
2016-11-01T15:46:27.358Z,0
2016-11-01T15:47:37.354Z,0
2016-11-01T15:48:47.033Z,0
2016-11-01T15:49:56.754Z,0
2016-11-01T15:51:06.738Z,0
2016-11-01T15:52:17.090Z,0
2016-11-01T15:53:26.843Z,0
2016-11-01T15:54:36.874Z,0
2016-11-01T15:55:47.183Z,0
2016-11-01T15:56:57.476Z,0
2016-11-01T15:58:07.773Z,0
2016-11-01T15:59:18.083Z,0
2016-11-01T16:00:28.092Z,0
2016-11-01T16:01:38.122Z,0
2016-11-01T16:02:48.440Z,0
2016-11-01T16:03:58.725Z,0
2016-11-01T16:05:08.711Z,0
2016-11-01T16:06:19.018Z,0
2016-11-01T16:07:29.044Z,0
2016-11-01T16:08:39.358Z,0
2016-11-01T16:09:49.676Z,0
2016-11-01T16:11:00.685Z,0
2016-11-01T16:12:11.364Z,0
2016-11-01T16:13:21.484Z,0
2016-11-01T16:14:31.765Z,0
2016-11-01T16:15:41.173Z,0
2016-11-01T16:16:51.464Z,0
2016-11-01T16:18:01.160Z,0
2016-11-01T16:19:11.451Z,0
2016-11-01T16:20:21.190Z,0
2016-11-01T16:21:30.875Z,0
2016-11-01T16:22:41.166Z,0
2016-11-01T16:23:51.173Z,0
2016-11-01T16:25:01.165Z,0
2016-11-01T16:26:11.158Z,0
2016-11-01T16:27:21.441Z,0
2016-11-01T16:28:31.736Z,0
2016-11-01T16:29:42.043Z,0
2016-11-01T16:30:52.045Z,0
2016-11-01T16:32:02.341Z,0
2016-11-01T16:33:12.641Z,0
2016-11-01T16:34:22.679Z,0
2016-11-01T16:35:32.675Z,0
2016-11-01T16:36:43.115Z,0
2016-11-01T16:37:53.409Z,0
2016-11-01T16:39:03.442Z,0
2016-11-01T16:40:13.728Z,0
2016-11-01T16:41:23.413Z,0
2016-11-01T16:42:33.722Z,0
2016-11-01T16:43:43.452Z,0
2016-11-01T16:44:53.751Z,0
2016-11-01T16:46:03.117Z,0
2016-11-01T16:47:13.417Z,0
2016-11-01T16:48:22.804Z,0
2016-11-01T16:49:33.102Z,0
2016-11-01T16:50:43.404Z,0
2016-11-01T16:51:53.395Z,0
2016-11-01T16:53:03.387Z,0
2016-11-01T16:54:13.689Z,0
2016-11-01T16:55:23.992Z,0
2016-11-01T16:56:34.299Z,0
2016-11-01T16:57:44.634Z,0
2016-11-01T16:58:54.639Z,0
2016-11-01T17:00:04.001Z,0
2016-11-01T17:01:14.305Z,0
2016-11-01T17:02:24.279Z,0
2016-11-01T17:03:34.318Z,0
2016-11-01T17:04:44.615Z,0
2016-11-01T17:05:54.908Z,0
2016-11-01T17:07:04.887Z,0
2016-11-01T17:08:14.290Z,0
2016-11-01T17:09:24.579Z,0
2016-11-01T17:10:34.569Z,0
2016-11-01T17:11:44.866Z,0
2016-11-01T17:12:55.158Z,0
2016-11-01T17:14:05.459Z,0